Time;durP1;ratioP1;P1;durP2;ratioP2;P2;SDS_P1;SDS_P2;PMS_P1;PMS_P2;Temp;Humidity;BMP_temperature;BMP_pressure;BME280_temperature;BME280_humidity;BME280_pressure;Samples;Min_cycle;Max_cycle;Signal;HPM_P1;HPM_P2
2023/04/12 00:06:53;;;;;;;3.70;1.02;;;;;;;;;;20843122;28;20502;-70
2023/04/12 00:16:55;;;;;;;3.13;0.88;;;;;;;;;;20841971;28;20049;-70
2023/04/12 00:26:57;;;;;;;0.60;0.40;;;;;;;;;;20841738;28;20072;-70
2023/04/12 00:36:59;;;;;;;2.50;0.90;;;;;;;;;;20838781;28;20092;-70
2023/04/12 00:47:01;;;;;;;1.98;0.98;;;;;;;;;;20838552;28;20049;-70
2023/04/12 00:57:03;;;;;;;1.88;0.70;;;;;;;;;;20839456;28;20478;-70
2023/04/12 01:07:14;;;;;;;5.97;1.10;;;;;;;;;;20837195;28;20081;-70
2023/04/12 01:17:19;;;;;;;2.80;0.52;;;;;;;;;;20836249;28;20052;-70
2023/04/12 01:27:40;;;;;;;2.22;0.57;;;;;;;;;;20835815;28;20085;-70
2023/04/12 01:37:43;;;;;;;1.80;0.65;;;;;;;;;;20836226;28;20049;-70
2023/04/12 01:47:45;;;;;;;4.15;0.63;;;;;;;;;;20835227;28;20045;-69
2023/04/12 01:57:47;;;;;;;1.75;0.80;;;;;;;;;;20834849;28;20049;-70
2023/04/12 02:07:49;;;;;;;2.13;0.63;;;;;;;;;;20833925;28;20053;-69
2023/04/12 02:17:52;;;;;;;3.25;0.80;;;;;;;;;;20832759;28;20053;-69
2023/04/12 02:27:54;;;;;;;4.40;1.00;;;;;;;;;;20832809;28;20556;-70
2023/04/12 02:37:56;;;;;;;3.53;0.80;;;;;;;;;;20831036;28;20060;-70
2023/04/12 02:47:58;;;;;;;1.75;0.90;;;;;;;;;;20831684;28;20041;-70
2023/04/12 02:58:00;;;;;;;5.65;1.00;;;;;;;;;;20842319;28;20049;-69
2023/04/12 03:08:02;;;;;;;4.50;0.90;;;;;;;;;;20847753;28;20076;-70
2023/04/12 03:18:03;;;;;;;4.85;1.35;;;;;;;;;;20846376;28;20528;-70
2023/04/12 03:28:05;;;;;;;2.80;1.02;;;;;;;;;;20846377;28;20085;-70
2023/04/12 03:38:07;;;;;;;5.10;1.40;;;;;;;;;;20844283;28;20082;-70
2023/04/12 03:48:10;;;;;;;2.28;1.00;;;;;;;;;;20843414;28;20046;-69
2023/04/12 03:58:12;;;;;;;2.55;1.17;;;;;;;;;;20843699;28;20111;-70
2023/04/12 04:08:14;;;;;;;3.10;1.17;;;;;;;;;;20840483;28;20077;-70
2023/04/12 04:18:16;;;;;;;5.93;1.60;;;;;;;;;;20841152;28;20050;-70
2023/04/12 04:28:18;;;;;;;2.65;1.23;;;;;;;;;;20840904;28;20068;-66
2023/04/12 04:38:24;;;;;;;5.22;1.35;;;;;;;;;;20841105;28;20049;-64
2023/04/12 04:48:28;;;;;;;2.85;1.20;;;;;;;;;;20840125;28;20041;-64
2023/04/12 04:58:30;;;;;;;2.10;1.30;;;;;;;;;;20839338;28;20079;-64
2023/04/12 05:08:32;;;;;;;1.75;1.15;;;;;;;;;;20838445;28;20049;-63
2023/04/12 05:18:33;;;;;;;3.80;1.40;;;;;;;;;;20837058;28;20053;-64
2023/04/12 05:28:35;;;;;;;3.10;1.13;;;;;;;;;;20835656;28;20053;-64
2023/04/12 05:38:37;;;;;;;4.70;1.27;;;;;;;;;;20835001;28;20091;-64
2023/04/12 05:48:39;;;;;;;3.22;1.10;;;;;;;;;;20835302;28;20045;-63
2023/04/12 05:58:41;;;;;;;4.97;1.38;;;;;;;;;;20834839;28;20132;-64
2023/04/12 06:08:42;;;;;;;8.40;1.70;;;;;;;;;;20833889;28;20054;-63
2023/04/12 06:18:44;;;;;;;5.85;1.30;;;;;;;;;;20832888;28;20495;-64
2023/04/12 06:28:46;;;;;;;4.45;1.35;;;;;;;;;;20830991;28;20060;-65
2023/04/12 06:38:50;;;;;;;6.00;1.50;;;;;;;;;;20831559;28;20499;-63
2023/04/12 06:48:52;;;;;;;4.13;1.60;;;;;;;;;;20831034;28;20068;-63
2023/04/12 06:58:53;;;;;;;10.32;1.77;;;;;;;;;;20830503;28;20487;-63
2023/04/12 07:08:55;;;;;;;6.18;1.30;;;;;;;;;;20829197;28;20132;-64
2023/04/12 07:18:57;;;;;;;4.82;1.58;;;;;;;;;;20828340;28;20060;-64
2023/04/12 07:28:59;;;;;;;4.93;1.10;;;;;;;;;;20829545;28;20483;-63
2023/04/12 07:39:01;;;;;;;5.88;1.60;;;;;;;;;;20832509;28;20395;-63
2023/04/12 07:49:03;;;;;;;3.63;1.00;;;;;;;;;;20844631;28;20056;-64
2023/04/12 07:59:05;;;;;;;2.65;0.77;;;;;;;;;;20843736;28;20112;-65
2023/04/12 08:09:07;;;;;;;2.50;0.60;;;;;;;;;;20842517;28;20189;-64
2023/04/12 08:19:09;;;;;;;5.28;0.90;;;;;;;;;;20841225;28;20147;-64
2023/04/12 08:29:11;;;;;;;6.55;1.08;;;;;;;;;;20840570;28;20060;-67
2023/04/12 08:39:12;;;;;;;4.35;1.45;;;;;;;;;;20840296;28;20049;-64
2023/04/12 08:49:15;;;;;;;7.05;0.88;;;;;;;;;;20839383;28;20050;-61
2023/04/12 08:59:17;;;;;;;4.22;0.73;;;;;;;;;;20838257;28;20394;-67
2023/04/12 09:09:19;;;;;;;5.63;0.98;;;;;;;;;;20836464;28;20049;-67
2023/04/12 09:19:31;;;;;;;5.60;1.00;;;;;;;;;;20837587;28;20061;-62
2023/04/12 09:29:33;;;;;;;4.53;0.73;;;;;;;;;;20835787;28;20046;-62
2023/04/12 09:39:35;;;;;;;2.53;0.70;;;;;;;;;;20834508;28;20049;-67
2023/04/12 09:49:38;;;;;;;4.15;0.77;;;;;;;;;;20835097;28;20045;-65
2023/04/12 09:59:41;;;;;;;4.72;1.10;;;;;;;;;;20834631;28;20449;-65
2023/04/12 10:09:42;;;;;;;3.05;0.68;;;;;;;;;;20833649;28;20479;-65
2023/04/12 10:19:44;;;;;;;2.40;0.40;;;;;;;;;;20832146;28;20057;-65
2023/04/12 10:29:46;;;;;;;3.72;0.50;;;;;;;;;;20832038;28;20049;-65
2023/04/12 10:39:52;;;;;;;2.60;0.47;;;;;;;;;;20831787;28;20053;-65
2023/04/12 10:50:13;;;;;;;3.08;0.60;;;;;;;;;;20831433;28;20493;-66
2023/04/12 11:00:15;;;;;;;3.40;0.80;;;;;;;;;;20831259;28;20410;-65
2023/04/12 11:10:20;;;;;;;2.65;0.60;;;;;;;;;;20829522;28;20053;-66
2023/04/12 11:20:22;;;;;;;2.05;0.40;;;;;;;;;;20841521;28;20061;-65
2023/04/12 11:30:24;;;;;;;0.70;0.40;;;;;;;;;;20844845;28;20057;-65
2023/04/12 11:40:26;;;;;;;1.23;0.70;;;;;;;;;;20843204;28;20045;-65
2023/04/12 11:50:29;;;;;;;2.85;1.13;;;;;;;;;;20844163;28;20095;-65
2023/04/12 12:00:31;;;;;;;3.63;0.80;;;;;;;;;;20842265;28;20061;-66
2023/04/12 12:10:33;;;;;;;2.10;0.90;;;;;;;;;;20843181;28;20050;-65
2023/04/12 12:20:49;;;;;;;3.47;1.13;;;;;;;;;;20841002;28;20077;-65
2023/04/12 12:30:56;;;;;;;3.50;0.80;;;;;;;;;;20838905;28;20054;-65
2023/04/12 12:40:57;;;;;;;2.37;0.83;;;;;;;;;;20840330;28;20080;-64
2023/04/12 12:50:59;;;;;;;1.70;0.70;;;;;;;;;;20839552;28;20088;-65
2023/04/12 13:01:01;;;;;;;3.17;1.50;;;;;;;;;;20837844;28;20061;-66
2023/04/12 13:11:03;;;;;;;2.88;0.80;;;;;;;;;;20838129;28;20049;-65
2023/04/12 13:21:05;;;;;;;3.58;0.90;;;;;;;;;;20836427;28;20053;-65
2023/04/12 13:31:07;;;;;;;5.50;1.13;;;;;;;;;;20835583;28;20095;-65
2023/04/12 13:41:08;;;;;;;3.72;1.20;;;;;;;;;;20836110;28;20088;-65
2023/04/12 13:51:10;;;;;;;1.95;0.80;;;;;;;;;;20835408;28;20375;-65
2023/04/12 14:01:12;;;;;;;3.35;0.93;;;;;;;;;;20832918;28;20054;-65
2023/04/12 14:11:14;;;;;;;3.75;0.95;;;;;;;;;;20833331;28;20056;-69
2023/04/12 14:21:16;;;;;;;3.78;1.20;;;;;;;;;;20832209;28;20411;-63
2023/04/12 14:31:18;;;;;;;3.58;1.10;;;;;;;;;;20832404;28;20053;-68
2023/04/12 14:41:20;;;;;;;2.50;1.13;;;;;;;;;;20832130;28;20045;-67
2023/04/12 14:51:21;;;;;;;4.90;0.90;;;;;;;;;;20829686;28;20049;-69
2023/04/12 15:01:24;;;;;;;3.20;0.95;;;;;;;;;;20831431;28;20049;-68
2023/04/12 15:11:26;;;;;;;6.82;0.98;;;;;;;;;;20829456;28;20053;-68
2023/04/12 15:21:28;;;;;;;2.22;0.80;;;;;;;;;;20829429;28;20491;-68
2023/04/12 15:31:29;;;;;;;2.72;0.90;;;;;;;;;;20829890;28;20399;-68
2023/04/12 15:41:36;;;;;;;2.53;1.02;;;;;;;;;;20828561;28;20057;-68
2023/04/12 15:51:38;;;;;;;2.38;0.60;;;;;;;;;;20829485;28;20053;-67
2023/04/12 16:01:40;;;;;;;2.50;0.60;;;;;;;;;;20833157;28;20050;-67
2023/04/12 16:11:42;;;;;;;3.85;0.80;;;;;;;;;;20841657;28;20406;-64
2023/04/12 16:21:46;;;;;;;2.88;0.93;;;;;;;;;;20839890;28;20152;-62
2023/04/12 16:31:47;;;;;;;2.28;0.77;;;;;;;;;;20834840;28;20125;-63
2023/04/12 16:41:50;;;;;;;2.13;1.00;;;;;;;;;;20837398;28;20057;-66
2023/04/12 16:51:51;;;;;;;2.20;0.70;;;;;;;;;;20831076;28;20094;-65
2023/04/12 17:01:53;;;;;;;7.00;1.17;;;;;;;;;;20832661;28;20061;-63
2023/04/12 17:11:55;;;;;;;4.65;1.83;;;;;;;;;;20834619;28;20050;-69
2023/04/12 17:21:57;;;;;;;9.95;2.30;;;;;;;;;;20834943;28;20053;-66
2023/04/12 17:31:59;;;;;;;6.13;1.42;;;;;;;;;;20833573;28;20053;-67
2023/04/12 17:42:01;;;;;;;2.50;0.68;;;;;;;;;;20834607;28;20084;-69
2023/04/12 17:52:03;;;;;;;0.80;0.30;;;;;;;;;;20833153;28;20049;-71
2023/04/12 18:02:04;;;;;;;1.38;0.40;;;;;;;;;;20832426;28;20065;-70
2023/04/12 18:12:06;;;;;;;1.92;0.30;;;;;;;;;;20831743;28;20049;-64
2023/04/12 18:22:09;;;;;;;1.27;0.40;;;;;;;;;;20829506;28;20049;-67
2023/04/12 18:32:11;;;;;;;1.02;0.50;;;;;;;;;;20831041;28;20502;-64
2023/04/12 18:42:13;;;;;;;1.42;0.20;;;;;;;;;;20831041;28;20052;-71
2023/04/12 18:52:15;;;;;;;1.98;0.32;;;;;;;;;;20831189;28;20383;-67
2023/04/12 19:02:17;;;;;;;2.15;0.28;;;;;;;;;;20830788;28;20050;-68
2023/04/12 19:12:19;;;;;;;2.58;0.30;;;;;;;;;;20830282;28;20053;-67
2023/04/12 19:22:21;;;;;;;1.65;0.52;;;;;;;;;;20828758;28;20095;-68
2023/04/12 19:32:23;;;;;;;0.50;0.30;;;;;;;;;;20827753;28;20049;-67
2023/04/12 19:42:25;;;;;;;0.50;0.28;;;;;;;;;;20842745;28;20053;-68
2023/04/12 19:52:27;;;;;;;0.50;0.30;;;;;;;;;;20843763;28;20395;-67
2023/04/12 20:02:29;;;;;;;0.50;0.30;;;;;;;;;;20842700;28;20045;-67
2023/04/12 20:12:34;;;;;;;0.63;0.20;;;;;;;;;;20841823;28;20091;-67
2023/04/12 20:22:37;;;;;;;3.80;1.00;;;;;;;;;;20840059;28;20064;-67
2023/04/12 20:32:38;;;;;;;0.70;0.30;;;;;;;;;;20839160;28;20116;-67
2023/04/12 20:42:41;;;;;;;1.45;0.38;;;;;;;;;;20839856;28;20438;-67
2023/04/12 20:52:44;;;;;;;0.50;0.28;;;;;;;;;;20838145;28;20081;-67
2023/04/12 21:02:47;;;;;;;0.65;0.30;;;;;;;;;;20838230;28;20128;-67
2023/04/12 21:12:50;;;;;;;0.75;0.30;;;;;;;;;;20835668;28;20049;-68
2023/04/12 21:22:52;;;;;;;0.93;0.20;;;;;;;;;;20834971;28;20400;-68
2023/04/12 21:32:54;;;;;;;1.00;0.30;;;;;;;;;;20835576;28;20042;-67
2023/04/12 21:42:56;;;;;;;1.75;0.40;;;;;;;;;;20833619;28;20049;-67
2023/04/12 21:52:57;;;;;;;2.08;0.70;;;;;;;;;;20835211;28;20042;-67
2023/04/12 22:02:59;;;;;;;2.13;0.52;;;;;;;;;;20833242;28;20131;-68
2023/04/12 22:13:02;;;;;;;1.13;0.45;;;;;;;;;;20833856;28;20490;-67
2023/04/12 22:23:03;;;;;;;2.05;0.70;;;;;;;;;;20832552;28;20056;-67
2023/04/12 22:33:07;;;;;;;2.17;0.70;;;;;;;;;;20832842;28;20134;-67
2023/04/12 22:43:16;;;;;;;2.65;0.68;;;;;;;;;;20832302;28;20060;-67
2023/04/12 22:53:18;;;;;;;2.35;0.60;;;;;;;;;;20830596;28;20053;-66
2023/04/12 23:03:20;;;;;;;2.20;0.77;;;;;;;;;;20831496;28;20052;-66
2023/04/12 23:13:22;;;;;;;3.50;0.82;;;;;;;;;;20839127;28;20115;-67
2023/04/12 23:23:25;;;;;;;3.97;0.75;;;;;;;;;;20845909;28;20054;-67
2023/04/12 23:33:27;;;;;;;3.35;0.68;;;;;;;;;;20845189;28;20052;-67
2023/04/12 23:43:29;;;;;;;5.05;0.90;;;;;;;;;;20845686;28;20057;-67
2023/04/12 23:53:31;;;;;;;2.15;0.90;;;;;;;;;;20845096;28;20053;-67
